createdAt,value
2022-12-05T00:01:46.004Z,13.20
2022-12-05T00:04:15.350Z,12.63
2022-12-05T00:06:45.353Z,13.33
2022-12-05T00:09:14.275Z,12.87
2022-12-05T00:11:43.878Z,11.17
2022-12-05T00:14:13.021Z,11.97
2022-12-05T00:16:42.318Z,13.47
2022-12-05T00:19:11.981Z,12.77
2022-12-05T00:21:39.693Z,13.00
2022-12-05T00:24:13.558Z,12.27
2022-12-05T00:26:41.517Z,12.97
2022-12-05T00:29:09.419Z,12.77
2022-12-05T00:31:52.102Z,12.73
2022-12-05T00:34:20.400Z,12.97
2022-12-05T00:36:48.320Z,12.67
2022-12-05T00:39:17.540Z,11.97
2022-12-05T00:41:45.832Z,12.27
2022-12-05T00:44:16.843Z,12.60
2022-12-05T00:46:51.309Z,12.23
2022-12-05T00:49:19.252Z,12.43
2022-12-05T00:51:47.498Z,12.07
2022-12-05T00:54:18.509Z,11.90
2022-12-05T00:56:47.127Z,11.90
2022-12-05T00:59:19.965Z,11.90
2022-12-05T01:01:51.242Z,11.27
2022-12-05T01:04:21.962Z,12.20
2022-12-05T01:06:50.415Z,11.90
2022-12-05T01:09:21.353Z,12.10
2022-12-05T01:11:56.607Z,11.70
2022-12-05T01:14:26.865Z,11.17
2022-12-05T01:16:56.508Z,13.03
2022-12-05T01:19:26.262Z,11.23
2022-12-05T01:21:54.486Z,12.13
2022-12-05T01:24:25.082Z,13.87
2022-12-05T01:26:53.780Z,14.50
2022-12-05T01:29:23.242Z,16.10
2022-12-05T01:31:51.032Z,14.83
2022-12-05T01:34:19.830Z,15.20
2022-12-05T01:36:48.056Z,16.03
2022-12-05T01:39:16.661Z,14.80
2022-12-05T01:41:48.801Z,14.40
2022-12-05T01:44:54.535Z,16.00
2022-12-05T01:47:23.187Z,13.90
2022-12-05T01:49:51.092Z,13.90
2022-12-05T01:52:21.360Z,13.50
2022-12-05T01:54:50.352Z,13.63
2022-12-05T01:57:19.859Z,16.53
2022-12-05T01:59:52.462Z,15.17
2022-12-05T02:02:21.086Z,14.83
2022-12-05T02:04:52.675Z,15.13
2022-12-05T02:07:20.972Z,13.67
2022-12-05T02:09:50.962Z,13.90
2022-12-05T02:12:20.331Z,14.23
2022-12-05T02:14:55.977Z,13.17
2022-12-05T02:17:30.849Z,13.27
2022-12-05T02:20:10.462Z,12.43
2022-12-05T02:22:57.990Z,12.23
2022-12-05T02:25:50.874Z,11.30
2022-12-05T02:28:34.997Z,10.53
2022-12-05T02:31:09.333Z,10.27
2022-12-05T02:33:40.330Z,9.60
2022-12-05T02:36:11.605Z,8.63
2022-12-05T02:38:41.894Z,8.70
2022-12-05T02:41:16.131Z,7.67
2022-12-05T02:43:48.120Z,7.87
2022-12-05T02:46:20.322Z,8.60
2022-12-05T02:48:49.077Z,7.07
2022-12-05T02:51:20.809Z,6.43
2022-12-05T02:53:50.685Z,6.63
2022-12-05T02:56:18.753Z,6.43
2022-12-05T02:58:51.841Z,6.60
2022-12-05T03:01:21.486Z,6.30
2022-12-05T03:03:49.298Z,6.33
2022-12-05T03:06:20.379Z,6.40
2022-12-05T03:08:50.165Z,6.90
2022-12-05T03:11:17.852Z,6.27
2022-12-05T03:13:47.398Z,6.60
2022-12-05T03:16:19.157Z,7.63
2022-12-05T03:18:50.032Z,6.63
2022-12-05T03:21:23.632Z,7.10
2022-12-05T03:23:52.757Z,6.80
2022-12-05T03:26:31.392Z,6.80
2022-12-05T03:29:04.265Z,6.47
2022-12-05T03:31:36.807Z,6.33
2022-12-05T03:34:09.179Z,7.07
2022-12-05T03:36:40.726Z,6.53
2022-12-05T03:39:11.823Z,6.77
2022-12-05T03:41:42.394Z,6.27
2022-12-05T03:44:14.572Z,6.63
2022-12-05T03:46:44.796Z,6.00
2022-12-05T03:49:18.287Z,6.93
2022-12-05T03:51:50.488Z,6.80
2022-12-05T03:54:21.465Z,8.73
2022-12-05T03:56:52.484Z,7.90
2022-12-05T03:59:23.908Z,8.90
2022-12-05T04:01:52.904Z,8.50
2022-12-05T04:04:23.717Z,8.33
2022-12-05T04:06:53.262Z,8.67
2022-12-05T04:09:24.045Z,7.00
2022-12-05T04:11:56.354Z,8.27
2022-12-05T04:14:28.128Z,8.07
2022-12-05T04:17:04.203Z,7.77
2022-12-05T04:19:51.757Z,7.80
2022-12-05T04:22:20.073Z,9.10
2022-12-05T04:25:06.026Z,9.73
2022-12-05T04:27:40.280Z,8.30
2022-12-05T04:30:11.356Z,7.60
2022-12-05T04:32:43.043Z,8.30
2022-12-05T04:35:16.293Z,7.97
2022-12-05T04:37:46.261Z,7.50
2022-12-05T04:40:17.440Z,8.10
2022-12-05T04:42:46.015Z,7.97
2022-12-05T04:45:16.751Z,8.57
2022-12-05T04:47:48.205Z,8.83
2022-12-05T04:50:17.590Z,9.67
2022-12-05T04:52:47.937Z,9.87
2022-12-05T04:55:20.139Z,9.97
2022-12-05T04:57:53.052Z,10.37
2022-12-05T05:00:20.866Z,12.00
2022-12-05T05:02:53.168Z,11.83
2022-12-05T05:05:23.680Z,13.13
2022-12-05T05:07:53.207Z,12.33
2022-12-05T05:10:23.178Z,12.87
2022-12-05T05:12:50.756Z,13.10
2022-12-05T05:15:18.397Z,13.80
2022-12-05T05:17:46.008Z,14.53
2022-12-05T05:20:25.568Z,14.33
2022-12-05T05:22:55.629Z,13.47
2022-12-05T05:25:23.656Z,13.67
2022-12-05T05:27:52.302Z,13.87
2022-12-05T05:30:20.251Z,14.83
2022-12-05T05:32:48.264Z,15.03
2022-12-05T05:35:16.527Z,15.10
2022-12-05T05:37:44.183Z,15.43
2022-12-05T05:40:14.568Z,15.90
2022-12-05T05:42:46.301Z,15.37
2022-12-05T05:45:15.256Z,15.57
2022-12-05T05:47:43.566Z,16.13
2022-12-05T05:50:16.270Z,15.60
2022-12-05T05:52:47.458Z,14.17
2022-12-05T05:55:16.507Z,14.87
2022-12-05T05:57:44.249Z,15.03
2022-12-05T06:00:13.139Z,14.87
2022-12-05T06:02:40.848Z,15.70
2022-12-05T06:05:09.411Z,16.37
2022-12-05T06:07:37.125Z,15.23
2022-12-05T06:10:05.799Z,14.33
2022-12-05T06:12:35.094Z,15.20
2022-12-05T06:15:02.776Z,15.70
2022-12-05T06:17:31.198Z,15.73
2022-12-05T06:19:58.957Z,14.63
2022-12-05T06:22:26.857Z,15.77
2022-12-05T06:24:54.606Z,16.33
2022-12-05T06:27:22.359Z,15.87
2022-12-05T06:29:51.434Z,16.53
2022-12-05T06:32:19.060Z,16.27
2022-12-05T06:34:46.714Z,15.50
2022-12-05T06:37:14.360Z,14.83
2022-12-05T06:39:42.480Z,14.83
2022-12-05T06:42:10.352Z,15.23
2022-12-05T06:44:38.086Z,15.53
2022-12-05T06:47:07.035Z,15.30
2022-12-05T06:49:37.891Z,14.00
2022-12-05T06:52:06.233Z,14.03
2022-12-05T06:54:33.988Z,14.67
2022-12-05T06:57:03.710Z,14.47
2022-12-05T06:59:31.351Z,15.00
2022-12-05T07:01:58.086Z,14.50
2022-12-05T07:04:27.085Z,14.70
2022-12-05T07:06:55.870Z,15.13
2022-12-05T07:09:45.780Z,15.20
2022-12-05T07:12:14.111Z,14.37
2022-12-05T07:14:50.010Z,16.07
2022-12-05T07:17:18.363Z,16.57
2022-12-05T07:19:48.414Z,14.70
2022-12-05T07:22:16.418Z,14.93
2022-12-05T07:24:44.561Z,14.40
2022-12-05T07:27:12.433Z,15.90
2022-12-05T07:29:40.163Z,15.47
2022-12-05T07:32:08.300Z,14.53
2022-12-05T07:34:36.128Z,13.87
2022-12-05T07:37:05.407Z,14.70
2022-12-05T07:39:33.182Z,14.73
2022-12-05T07:42:00.979Z,14.20
2022-12-05T07:44:28.613Z,15.00
2022-12-05T07:46:56.277Z,14.07
2022-12-05T07:49:23.887Z,15.07
2022-12-05T07:51:51.679Z,14.77
2022-12-05T07:54:20.667Z,15.50
2022-12-05T07:56:48.344Z,15.67
2022-12-05T07:59:16.057Z,15.13
2022-12-05T08:01:43.664Z,16.13
2022-12-05T08:04:15.263Z,16.27
2022-12-05T08:06:43.330Z,15.90
2022-12-05T08:09:11.021Z,16.60
2022-12-05T08:11:40.066Z,16.60
2022-12-05T08:14:08.043Z,16.20
2022-12-05T08:16:35.862Z,15.83
2022-12-05T08:19:05.854Z,16.07
2022-12-05T08:21:34.565Z,16.43
2022-12-05T08:24:03.878Z,16.30
2022-12-05T08:26:32.772Z,17.63
2022-12-05T08:29:03.482Z,17.63
2022-12-05T08:31:33.305Z,16.03
2022-12-05T08:34:01.727Z,17.17
2022-12-05T08:36:31.093Z,15.43
2022-12-05T08:38:59.817Z,15.50
2022-12-05T08:41:28.987Z,14.17
2022-12-05T08:43:56.851Z,15.30
2022-12-05T08:46:26.164Z,13.60
2022-12-05T08:48:53.943Z,14.77
2022-12-05T08:51:21.671Z,14.67
2022-12-05T08:53:49.475Z,15.13
2022-12-05T08:56:18.893Z,13.90
2022-12-05T08:58:48.597Z,13.57
2022-12-05T09:01:18.110Z,14.10
2022-12-05T09:03:48.365Z,13.33
2022-12-05T09:06:18.121Z,13.97
2022-12-05T09:08:46.397Z,13.00
2022-12-05T09:11:16.031Z,12.80
2022-12-05T09:13:44.020Z,12.43
2022-12-05T09:16:13.686Z,12.43
2022-12-05T09:18:41.768Z,12.20
2022-12-05T09:21:12.457Z,12.33
2022-12-05T09:23:40.169Z,11.47
2022-12-05T09:26:11.755Z,12.37
2022-12-05T09:28:39.562Z,12.10
2022-12-05T09:31:08.671Z,13.20
2022-12-05T09:33:38.168Z,12.10
2022-12-05T09:36:06.779Z,12.80
2022-12-05T09:38:35.836Z,11.80
2022-12-05T09:41:09.290Z,11.87
2022-12-05T09:43:41.303Z,11.80
2022-12-05T09:46:14.747Z,13.53
2022-12-05T09:48:44.899Z,11.37
2022-12-05T09:51:13.673Z,11.63
2022-12-05T09:53:44.467Z,12.50
2022-12-05T09:56:15.406Z,11.37
2022-12-05T09:58:45.344Z,10.70
2022-12-05T10:01:24.550Z,9.83
2022-12-05T10:04:05.294Z,10.93
2022-12-05T10:06:36.099Z,11.07
2022-12-05T10:09:19.933Z,10.20
2022-12-05T10:11:51.533Z,10.90
2022-12-05T10:14:24.575Z,10.40
2022-12-05T10:16:55.124Z,10.90
2022-12-05T10:19:26.618Z,11.73
2022-12-05T10:21:59.133Z,11.47
2022-12-05T10:24:31.658Z,9.87
2022-12-05T10:27:01.790Z,10.80
2022-12-05T10:29:31.505Z,11.90
2022-12-05T10:32:06.719Z,8.73
2022-12-05T10:34:36.589Z,9.47
2022-12-05T10:37:11.204Z,9.87
2022-12-05T10:39:40.480Z,9.20
2022-12-05T10:42:11.663Z,8.37
2022-12-05T10:44:39.353Z,7.30
2022-12-05T10:47:07.361Z,7.60
2022-12-05T10:49:35.542Z,7.23
2022-12-05T10:52:03.287Z,7.63
2022-12-05T10:54:32.473Z,7.60
2022-12-05T10:57:01.871Z,7.27
2022-12-05T10:59:47.037Z,7.57
2022-12-05T11:02:22.661Z,7.50
2022-12-05T11:04:50.478Z,7.03
2022-12-05T11:07:28.175Z,7.47
2022-12-05T11:09:55.837Z,6.90
2022-12-05T11:12:27.012Z,9.30
2022-12-05T11:14:57.163Z,8.23
2022-12-05T11:17:27.670Z,8.67
2022-12-05T11:19:55.267Z,9.13
2022-12-05T11:22:32.454Z,8.20
2022-12-05T11:25:00.544Z,9.20
2022-12-05T11:27:31.853Z,8.97
2022-12-05T11:30:02.170Z,8.93
2022-12-05T11:32:32.762Z,8.60
2022-12-05T11:35:14.477Z,8.37
2022-12-05T11:37:46.198Z,7.73
2022-12-05T11:40:16.314Z,7.53
2022-12-05T11:42:57.064Z,7.47
2022-12-05T11:45:36.232Z,8.03
2022-12-05T11:48:17.946Z,7.93
2022-12-05T11:50:53.802Z,8.80
2022-12-05T11:53:51.350Z,8.33
2022-12-05T11:56:27.710Z,8.70
2022-12-05T11:59:10.657Z,12.73
2022-12-05T12:01:47.538Z,11.67
2022-12-05T12:04:29.404Z,10.40
2022-12-05T12:07:08.538Z,9.23
2022-12-05T12:09:43.937Z,9.40
2022-12-05T12:12:22.045Z,9.33
2022-12-05T12:14:58.784Z,8.47
2022-12-05T12:17:32.540Z,8.93
2022-12-05T12:20:11.602Z,8.30
2022-12-05T12:22:49.319Z,9.00
2022-12-05T12:25:24.804Z,8.43
2022-12-05T12:28:04.523Z,8.57
2022-12-05T12:30:42.026Z,8.37
2022-12-05T12:33:16.250Z,8.43
2022-12-05T12:35:47.490Z,8.07
2022-12-05T12:38:33.587Z,8.60
2022-12-05T12:41:06.574Z,8.60
2022-12-05T12:43:54.685Z,8.33
2022-12-05T12:46:41.935Z,8.43
2022-12-05T12:49:20.513Z,8.20
2022-12-05T12:51:53.775Z,7.63
2022-12-05T12:57:35.396Z,7.80
2022-12-05T13:00:10.850Z,7.47
2022-12-05T13:02:45.153Z,6.87
2022-12-05T13:05:22.612Z,6.97
2022-12-05T13:07:53.103Z,7.23
2022-12-05T13:10:26.490Z,7.37
2022-12-05T13:12:55.487Z,7.30
2022-12-05T13:15:27.700Z,7.40
2022-12-05T13:17:56.839Z,7.60
2022-12-05T13:20:26.593Z,7.23
2022-12-05T13:22:55.065Z,6.77
2022-12-05T13:25:29.055Z,7.70
2022-12-05T13:27:58.695Z,7.87
2022-12-05T13:30:28.114Z,8.07
2022-12-05T13:32:59.095Z,7.20
2022-12-05T13:35:49.634Z,7.97
2022-12-05T13:38:39.559Z,7.73
2022-12-05T13:41:25.024Z,8.07
2022-12-05T13:44:05.867Z,7.37
2022-12-05T13:46:36.139Z,8.00
2022-12-05T13:49:11.672Z,7.63
2022-12-05T13:51:44.422Z,7.93
2022-12-05T13:54:14.708Z,7.13
2022-12-05T13:56:51.630Z,8.30
2022-12-05T13:59:56.965Z,7.83
2022-12-05T14:02:51.245Z,7.43
2022-12-05T14:05:49.230Z,7.93
2022-12-05T14:08:46.588Z,7.60
2022-12-05T14:11:14.321Z,8.20
2022-12-05T14:13:44.828Z,8.97
2022-12-05T14:16:49.992Z,9.73
2022-12-05T14:19:59.342Z,9.10
2022-12-05T14:23:09.130Z,8.53
2022-12-05T14:26:02.114Z,9.33
2022-12-05T14:28:49.172Z,10.53
2022-12-05T14:31:38.594Z,14.03
2022-12-05T14:34:20.756Z,13.63
2022-12-05T14:37:04.213Z,11.00
2022-12-05T14:39:37.926Z,10.93
2022-12-05T14:42:21.602Z,8.53
2022-12-05T14:44:50.409Z,8.67
2022-12-05T14:47:20.671Z,9.30
2022-12-05T14:49:57.892Z,9.50
2022-12-05T14:52:27.329Z,9.23
2022-12-05T14:54:58.440Z,9.33
2022-12-05T14:57:28.072Z,12.03
2022-12-05T14:59:57.868Z,10.13
2022-12-05T15:02:27.988Z,9.90
2022-12-05T15:04:59.796Z,11.30
2022-12-05T15:07:33.116Z,14.70
2022-12-05T15:10:02.890Z,12.33
2022-12-05T15:12:36.903Z,11.13
2022-12-05T15:15:09.375Z,10.97
2022-12-05T15:17:45.954Z,12.00
2022-12-05T15:20:19.223Z,11.47
2022-12-05T15:22:46.925Z,11.17
2022-12-05T15:25:29.254Z,10.37
2022-12-05T15:28:01.295Z,10.03
2022-12-05T15:30:30.781Z,10.00
2022-12-05T15:32:59.860Z,9.93
2022-12-05T15:35:30.105Z,10.40
2022-12-05T15:38:00.608Z,10.67
2022-12-05T15:40:37.242Z,11.03
2022-12-05T15:46:27.778Z,10.87
2022-12-05T15:48:57.016Z,10.17
2022-12-05T15:51:29.955Z,10.63
2022-12-05T15:54:01.318Z,9.27
2022-12-05T15:56:31.463Z,9.37
2022-12-05T15:59:05.801Z,9.70
2022-12-05T16:01:40.837Z,10.07
2022-12-05T16:04:15.960Z,8.73
2022-12-05T16:06:45.812Z,8.80
2022-12-05T16:09:16.349Z,8.27
2022-12-05T16:11:52.711Z,7.93
2022-12-05T16:14:50.902Z,6.90
2022-12-05T16:17:14.233Z,7.33
2022-12-05T16:19:42.123Z,7.00
2022-12-05T16:22:15.899Z,6.60
2022-12-05T16:24:44.655Z,6.47
2022-12-05T16:27:17.831Z,6.10
2022-12-05T16:29:45.880Z,5.93
2022-12-05T16:32:21.552Z,6.73
2022-12-05T16:34:49.421Z,7.40
2022-12-05T16:37:23.809Z,6.90
2022-12-05T16:39:51.470Z,6.17
2022-12-05T16:42:29.559Z,6.03
2022-12-05T16:45:02.106Z,5.57
2022-12-05T16:47:57.107Z,5.77
2022-12-05T16:50:32.267Z,5.20
2022-12-05T16:53:04.467Z,5.17
2022-12-05T16:55:37.228Z,6.17
2022-12-05T16:58:05.177Z,6.17
2022-12-05T17:00:33.206Z,6.17
2022-12-05T17:03:32.262Z,5.80
2022-12-05T17:05:50.626Z,5.50
2022-12-05T17:08:18.336Z,5.87
2022-12-05T17:10:46.049Z,6.07
2022-12-05T17:13:15.590Z,5.53
2022-12-05T17:15:43.509Z,6.53
2022-12-05T17:18:14.331Z,6.27
2022-12-05T17:20:43.411Z,5.80
2022-12-05T17:23:15.234Z,6.40
2022-12-05T17:25:44.780Z,6.40
2022-12-05T17:28:12.632Z,6.20
2022-12-05T17:30:40.544Z,6.63
2022-12-05T17:33:11.040Z,5.83
2022-12-05T17:35:40.693Z,6.63
2022-12-05T17:38:08.626Z,7.87
2022-12-05T17:40:36.592Z,7.70
2022-12-05T17:43:04.699Z,6.63
2022-12-05T17:45:33.176Z,7.97
2022-12-05T17:48:01.388Z,8.33
2022-12-05T17:50:29.862Z,9.40
2022-12-05T17:53:04.224Z,10.40
2022-12-05T17:55:34.837Z,11.97
2022-12-05T17:58:02.491Z,13.83
2022-12-05T18:00:30.288Z,13.17
2022-12-05T18:02:58.359Z,14.30
2022-12-05T18:05:26.094Z,12.27
2022-12-05T18:07:53.815Z,15.03
2022-12-05T18:10:23.742Z,12.83
2022-12-05T18:12:52.085Z,8.37
2022-12-05T18:15:28.313Z,13.47
2022-12-05T18:17:56.094Z,7.47
2022-12-05T18:20:23.719Z,5.90
2022-12-05T18:22:51.685Z,5.57
2022-12-05T18:25:19.423Z,5.47
2022-12-05T18:27:48.650Z,5.30
2022-12-05T18:30:16.421Z,4.70
2022-12-05T18:32:44.383Z,5.40
2022-12-05T18:35:13.229Z,5.10
2022-12-05T18:37:41.154Z,4.83
2022-12-05T18:40:10.917Z,5.13
2022-12-05T18:42:38.553Z,5.13
2022-12-05T18:45:09.243Z,5.23
2022-12-05T18:47:37.148Z,4.90
2022-12-05T18:50:05.280Z,4.53
2022-12-05T18:52:33.020Z,4.40
2022-12-05T18:55:16.333Z,4.67
2022-12-05T18:57:45.424Z,4.73
2022-12-05T19:00:16.071Z,4.77
2022-12-05T19:02:43.834Z,5.10
2022-12-05T19:05:11.527Z,4.87
2022-12-05T19:07:39.223Z,4.27
2022-12-05T19:10:08.424Z,4.70
2022-12-05T19:12:37.526Z,6.57
2022-12-05T19:15:06.231Z,9.23
2022-12-05T19:17:35.511Z,9.73
2022-12-05T19:20:03.244Z,5.97
2022-12-05T19:22:31.359Z,5.60
2022-12-05T19:24:59.676Z,5.70
2022-12-05T19:27:27.495Z,6.20
2022-12-05T19:29:55.424Z,6.40
2022-12-05T19:32:23.288Z,7.20
2022-12-05T19:34:52.375Z,6.53
2022-12-05T19:37:20.287Z,12.17
2022-12-05T19:39:49.662Z,8.33
2022-12-05T19:42:17.383Z,5.97
2022-12-05T19:44:45.933Z,5.80
2022-12-05T19:47:13.527Z,4.97
2022-12-05T19:49:41.278Z,5.53
2022-12-05T19:52:10.352Z,6.30
2022-12-05T19:54:39.355Z,6.07
2022-12-05T19:57:07.012Z,6.17
2022-12-05T19:59:34.670Z,6.77
2022-12-05T20:02:02.468Z,5.30
2022-12-05T20:04:30.303Z,6.37
2022-12-05T20:06:58.029Z,6.43
2022-12-05T20:09:27.959Z,6.17
2022-12-05T20:11:56.197Z,7.23
2022-12-05T20:14:25.137Z,7.47
2022-12-05T20:16:53.127Z,7.57
2022-12-05T20:19:21.323Z,6.83
2022-12-05T20:21:48.904Z,7.00
2022-12-05T20:24:16.670Z,7.40
2022-12-05T20:26:46.023Z,6.10
2022-12-05T20:29:13.944Z,6.50
2022-12-05T20:31:43.096Z,6.63
2022-12-05T20:34:13.258Z,6.63
2022-12-05T20:36:41.019Z,7.07
2022-12-05T20:39:11.169Z,5.77
2022-12-05T20:41:38.982Z,5.70
2022-12-05T20:44:08.810Z,5.87
2022-12-05T20:46:36.892Z,6.23
2022-12-05T20:49:04.818Z,6.47
2022-12-05T20:51:34.272Z,6.20
2022-12-05T20:54:03.604Z,5.73
2022-12-05T20:56:33.605Z,5.80
2022-12-05T20:59:03.202Z,6.27
2022-12-05T21:01:33.908Z,6.57
2022-12-05T21:04:02.673Z,6.60
2022-12-05T21:06:32.739Z,5.90
2022-12-05T21:09:01.724Z,6.50
2022-12-05T21:11:30.914Z,5.83
2022-12-05T21:14:00.677Z,6.13
2022-12-05T21:16:28.984Z,6.07
2022-12-05T21:19:00.692Z,5.87
2022-12-05T21:21:29.710Z,6.77
2022-12-05T21:23:59.277Z,5.90
2022-12-05T21:26:28.029Z,6.60
2022-12-05T21:28:56.359Z,6.10
2022-12-05T21:31:26.161Z,5.97
2022-12-05T21:33:55.623Z,5.77
2022-12-05T21:36:25.458Z,6.87
2022-12-05T21:38:56.184Z,6.27
2022-12-05T21:41:24.778Z,6.10
2022-12-05T21:43:55.259Z,5.93
2022-12-05T21:46:23.627Z,5.77
2022-12-05T21:48:51.399Z,6.37
2022-12-05T21:51:19.320Z,6.07
2022-12-05T21:53:48.513Z,5.83
2022-12-05T21:56:18.421Z,5.60
2022-12-05T21:58:47.188Z,5.07
2022-12-05T22:01:18.235Z,5.30
2022-12-05T22:03:46.324Z,5.17
2022-12-05T22:06:15.618Z,5.33
2022-12-05T22:08:43.826Z,5.30
2022-12-05T22:11:14.587Z,5.00
2022-12-05T22:13:42.367Z,5.40
2022-12-05T22:16:10.334Z,4.10
2022-12-05T22:18:38.573Z,4.30
2022-12-05T22:21:08.691Z,3.93
2022-12-05T22:23:36.897Z,3.90
2022-12-05T22:26:06.151Z,3.90
2022-12-05T22:28:35.993Z,4.00
2022-12-05T22:31:05.525Z,4.10
2022-12-05T22:33:35.702Z,4.00
2022-12-05T22:36:04.915Z,3.73
2022-12-05T22:38:34.925Z,3.50
2022-12-05T22:41:04.078Z,3.60
2022-12-05T22:43:33.139Z,3.57
2022-12-05T22:46:06.165Z,3.77
2022-12-05T22:48:34.481Z,3.33
2022-12-05T22:51:03.761Z,3.43
2022-12-05T22:53:31.802Z,3.00
2022-12-05T22:56:03.374Z,3.10
2022-12-05T22:58:31.120Z,3.10
2022-12-05T23:00:58.791Z,3.00
2022-12-05T23:03:27.865Z,2.83
2022-12-05T23:05:55.494Z,2.53
2022-12-05T23:08:23.168Z,2.50
2022-12-05T23:10:50.851Z,2.30
2022-12-05T23:13:18.494Z,2.10
2022-12-05T23:15:46.411Z,1.97
2022-12-05T23:18:14.550Z,1.83
2022-12-05T23:20:43.699Z,1.33
2022-12-05T23:23:11.345Z,2.10
2022-12-05T23:25:38.960Z,1.93
2022-12-05T23:28:06.935Z,1.67
2022-12-05T23:30:34.510Z,1.93
2022-12-05T23:33:02.180Z,1.53
2022-12-05T23:35:29.770Z,1.60
2022-12-05T23:37:58.727Z,1.60
2022-12-05T23:40:26.366Z,1.70
2022-12-05T23:42:54.024Z,1.67
2022-12-05T23:45:21.641Z,1.50
2022-12-05T23:47:49.228Z,1.93
2022-12-05T23:50:17.064Z,1.73
2022-12-05T23:52:44.714Z,1.53
2022-12-05T23:55:13.827Z,1.50
2022-12-05T23:57:41.485Z,1.73
